sensor_id;sensor_type;location;lat;lon;timestamp;P1;durP1;ratioP1;P2;durP2;ratioP2
79135;SDS011;68533;51.090;17.216;2024-02-15T00:01:46;17.10;;;9.20;;
79135;SDS011;68533;51.090;17.216;2024-02-15T00:05:11;18.33;;;9.48;;
79135;SDS011;68533;51.090;17.216;2024-02-15T00:08:36;16.23;;;8.68;;
79135;SDS011;68533;51.090;17.216;2024-02-15T00:12:00;23.40;;;9.52;;
79135;SDS011;68533;51.090;17.216;2024-02-15T00:15:25;21.52;;;8.90;;
79135;SDS011;68533;51.090;17.216;2024-02-15T00:18:49;22.90;;;9.13;;
79135;SDS011;68533;51.090;17.216;2024-02-15T00:22:14;21.52;;;9.13;;
79135;SDS011;68533;51.090;17.216;2024-02-15T00:25:38;27.95;;;10.70;;
79135;SDS011;68533;51.090;17.216;2024-02-15T00:29:04;26.67;;;9.70;;
79135;SDS011;68533;51.090;17.216;2024-02-15T00:32:35;25.35;;;9.85;;
79135;SDS011;68533;51.090;17.216;2024-02-15T00:36:02;19.77;;;10.63;;
79135;SDS011;68533;51.090;17.216;2024-02-15T00:39:27;25.15;;;9.93;;
79135;SDS011;68533;51.090;17.216;2024-02-15T00:42:51;18.40;;;8.77;;
79135;SDS011;68533;51.090;17.216;2024-02-15T00:46:31;20.02;;;9.98;;
79135;SDS011;68533;51.090;17.216;2024-02-15T00:51:05;22.80;;;8.93;;
79135;SDS011;68533;51.090;17.216;2024-02-15T00:55:06;22.13;;;7.90;;
79135;SDS011;68533;51.090;17.216;2024-02-15T00:58:33;21.45;;;8.55;;
79135;SDS011;68533;51.090;17.216;2024-02-15T01:15:09;15.48;;;7.57;;
79135;SDS011;68533;51.090;17.216;2024-02-15T01:19:35;19.10;;;8.25;;
79135;SDS011;68533;51.090;17.216;2024-02-15T01:28:04;22.58;;;9.60;;
79135;SDS011;68533;51.090;17.216;2024-02-15T01:32:32;13.95;;;8.00;;
79135;SDS011;68533;51.090;17.216;2024-02-15T01:36:00;14.98;;;7.85;;
79135;SDS011;68533;51.090;17.216;2024-02-15T01:39:55;21.48;;;9.15;;
79135;SDS011;68533;51.090;17.216;2024-02-15T01:43:22;15.63;;;8.70;;
79135;SDS011;68533;51.090;17.216;2024-02-15T01:46:47;16.63;;;8.38;;
79135;SDS011;68533;51.090;17.216;2024-02-15T01:50:14;15.98;;;8.48;;
79135;SDS011;68533;51.090;17.216;2024-02-15T01:53:40;15.57;;;7.78;;
79135;SDS011;68533;51.090;17.216;2024-02-15T01:57:06;22.33;;;9.05;;
79135;SDS011;68533;51.090;17.216;2024-02-15T02:00:31;17.98;;;8.70;;
79135;SDS011;68533;51.090;17.216;2024-02-15T02:04:04;16.98;;;7.72;;
79135;SDS011;68533;51.090;17.216;2024-02-15T02:07:29;13.55;;;7.10;;
79135;SDS011;68533;51.090;17.216;2024-02-15T02:15:29;18.25;;;8.45;;
79135;SDS011;68533;51.090;17.216;2024-02-15T02:19:30;11.80;;;6.90;;
79135;SDS011;68533;51.090;17.216;2024-02-15T02:24:22;16.00;;;7.82;;
79135;SDS011;68533;51.090;17.216;2024-02-15T02:28:19;17.17;;;7.80;;
79135;SDS011;68533;51.090;17.216;2024-02-15T02:41:43;14.43;;;7.47;;
79135;SDS011;68533;51.090;17.216;2024-02-15T02:50:11;16.00;;;6.85;;
79135;SDS011;68533;51.090;17.216;2024-02-15T02:54:29;12.48;;;7.00;;
79135;SDS011;68533;51.090;17.216;2024-02-15T02:58:27;12.88;;;7.53;;
79135;SDS011;68533;51.090;17.216;2024-02-15T03:10:17;12.95;;;6.88;;
79135;SDS011;68533;51.090;17.216;2024-02-15T03:13:59;15.85;;;9.43;;
79135;SDS011;68533;51.090;17.216;2024-02-15T03:18:24;10.52;;;6.43;;
79135;SDS011;68533;51.090;17.216;2024-02-15T03:22:54;12.70;;;7.18;;
79135;SDS011;68533;51.090;17.216;2024-02-15T03:35:40;11.25;;;6.60;;
79135;SDS011;68533;51.090;17.216;2024-02-15T03:39:13;17.17;;;7.53;;
79135;SDS011;68533;51.090;17.216;2024-02-15T03:43:14;16.73;;;7.95;;
79135;SDS011;68533;51.090;17.216;2024-02-15T03:47:32;12.65;;;6.82;;
79135;SDS011;68533;51.090;17.216;2024-02-15T03:56:25;16.02;;;7.53;;
79135;SDS011;68533;51.090;17.216;2024-02-15T04:04:37;11.57;;;7.13;;
79135;SDS011;68533;51.090;17.216;2024-02-15T04:08:45;11.07;;;7.13;;
79135;SDS011;68533;51.090;17.216;2024-02-15T04:13:18;12.30;;;6.68;;
79135;SDS011;68533;51.090;17.216;2024-02-15T04:17:52;11.50;;;6.55;;
79135;SDS011;68533;51.090;17.216;2024-02-15T04:22:06;13.82;;;7.18;;
79135;SDS011;68533;51.090;17.216;2024-02-15T04:26:27;12.90;;;6.70;;
79135;SDS011;68533;51.090;17.216;2024-02-15T04:30:33;18.00;;;7.43;;
79135;SDS011;68533;51.090;17.216;2024-02-15T04:40:13;14.40;;;6.95;;
79135;SDS011;68533;51.090;17.216;2024-02-15T04:44:04;12.20;;;7.75;;
79135;SDS011;68533;51.090;17.216;2024-02-15T04:48:25;11.25;;;7.10;;
79135;SDS011;68533;51.090;17.216;2024-02-15T04:52:25;12.63;;;7.20;;
79135;SDS011;68533;51.090;17.216;2024-02-15T05:01:01;12.23;;;7.53;;
79135;SDS011;68533;51.090;17.216;2024-02-15T05:05:02;13.90;;;8.05;;
79135;SDS011;68533;51.090;17.216;2024-02-15T05:09:29;14.93;;;8.43;;
79135;SDS011;68533;51.090;17.216;2024-02-15T05:12:54;15.30;;;8.32;;
79135;SDS011;68533;51.090;17.216;2024-02-15T05:16:18;17.45;;;8.30;;
79135;SDS011;68533;51.090;17.216;2024-02-15T05:19:44;16.30;;;8.07;;
79135;SDS011;68533;51.090;17.216;2024-02-15T05:23:10;14.77;;;8.02;;
79135;SDS011;68533;51.090;17.216;2024-02-15T05:30:02;14.80;;;7.55;;
79135;SDS011;68533;51.090;17.216;2024-02-15T05:33:55;14.48;;;7.40;;
79135;SDS011;68533;51.090;17.216;2024-02-15T05:37:20;15.13;;;8.20;;
79135;SDS011;68533;51.090;17.216;2024-02-15T05:40:47;13.05;;;7.13;;
79135;SDS011;68533;51.090;17.216;2024-02-15T05:44:15;14.25;;;8.02;;
79135;SDS011;68533;51.090;17.216;2024-02-15T05:47:54;16.42;;;8.77;;
79135;SDS011;68533;51.090;17.216;2024-02-15T05:51:21;14.13;;;8.73;;
79135;SDS011;68533;51.090;17.216;2024-02-15T05:54:46;16.30;;;8.55;;
79135;SDS011;68533;51.090;17.216;2024-02-15T05:58:11;17.38;;;9.35;;
79135;SDS011;68533;51.090;17.216;2024-02-15T06:01:37;12.32;;;7.05;;
79135;SDS011;68533;51.090;17.216;2024-02-15T06:05:03;15.55;;;8.85;;
79135;SDS011;68533;51.090;17.216;2024-02-15T06:08:35;17.45;;;10.20;;
79135;SDS011;68533;51.090;17.216;2024-02-15T06:12:03;12.70;;;8.30;;
79135;SDS011;68533;51.090;17.216;2024-02-15T06:15:28;19.58;;;10.32;;
79135;SDS011;68533;51.090;17.216;2024-02-15T06:18:55;13.73;;;8.38;;
79135;SDS011;68533;51.090;17.216;2024-02-15T06:22:21;16.58;;;8.68;;
79135;SDS011;68533;51.090;17.216;2024-02-15T06:25:46;15.40;;;8.65;;
79135;SDS011;68533;51.090;17.216;2024-02-15T06:29:17;15.73;;;8.10;;
79135;SDS011;68533;51.090;17.216;2024-02-15T06:33:00;15.45;;;8.30;;
79135;SDS011;68533;51.090;17.216;2024-02-15T06:36:47;15.35;;;7.95;;
79135;SDS011;68533;51.090;17.216;2024-02-15T06:40:31;15.02;;;7.57;;
79135;SDS011;68533;51.090;17.216;2024-02-15T06:44:13;16.00;;;7.18;;
79135;SDS011;68533;51.090;17.216;2024-02-15T06:47:42;12.52;;;6.93;;
79135;SDS011;68533;51.090;17.216;2024-02-15T06:51:14;14.75;;;7.20;;
79135;SDS011;68533;51.090;17.216;2024-02-15T06:54:38;13.40;;;7.55;;
79135;SDS011;68533;51.090;17.216;2024-02-15T06:58:05;18.02;;;7.95;;
79135;SDS011;68533;51.090;17.216;2024-02-15T07:04:54;9.40;;;6.00;;
79135;SDS011;68533;51.090;17.216;2024-02-15T07:08:19;12.52;;;7.60;;
79135;SDS011;68533;51.090;17.216;2024-02-15T07:11:46;14.82;;;8.25;;
79135;SDS011;68533;51.090;17.216;2024-02-15T07:15:11;13.65;;;6.88;;
79135;SDS011;68533;51.090;17.216;2024-02-15T07:18:37;13.27;;;6.63;;
79135;SDS011;68533;51.090;17.216;2024-02-15T07:22:04;11.95;;;6.97;;
79135;SDS011;68533;51.090;17.216;2024-02-15T07:25:29;12.10;;;7.20;;
79135;SDS011;68533;51.090;17.216;2024-02-15T07:28:54;15.25;;;7.45;;
79135;SDS011;68533;51.090;17.216;2024-02-15T07:32:20;13.40;;;6.95;;
79135;SDS011;68533;51.090;17.216;2024-02-15T07:35:46;10.40;;;7.10;;
79135;SDS011;68533;51.090;17.216;2024-02-15T07:39:12;18.42;;;7.93;;
79135;SDS011;68533;51.090;17.216;2024-02-15T07:42:38;11.82;;;6.70;;
79135;SDS011;68533;51.090;17.216;2024-02-15T07:46:02;13.15;;;7.10;;
79135;SDS011;68533;51.090;17.216;2024-02-15T07:49:28;17.58;;;8.35;;
79135;SDS011;68533;51.090;17.216;2024-02-15T07:52:54;23.85;;;9.50;;
79135;SDS011;68533;51.090;17.216;2024-02-15T07:56:19;17.25;;;8.07;;
79135;SDS011;68533;51.090;17.216;2024-02-15T07:59:45;14.90;;;7.22;;
79135;SDS011;68533;51.090;17.216;2024-02-15T08:03:12;11.35;;;6.47;;
79135;SDS011;68533;51.090;17.216;2024-02-15T08:06:38;10.73;;;6.28;;
79135;SDS011;68533;51.090;17.216;2024-02-15T08:10:08;12.10;;;7.32;;
79135;SDS011;68533;51.090;17.216;2024-02-15T08:13:52;14.65;;;6.70;;
79135;SDS011;68533;51.090;17.216;2024-02-15T08:17:18;11.73;;;7.15;;
79135;SDS011;68533;51.090;17.216;2024-02-15T08:20:43;12.48;;;7.05;;
79135;SDS011;68533;51.090;17.216;2024-02-15T08:24:12;10.43;;;5.82;;
79135;SDS011;68533;51.090;17.216;2024-02-15T08:27:41;13.43;;;6.70;;
79135;SDS011;68533;51.090;17.216;2024-02-15T08:31:12;17.83;;;9.15;;
79135;SDS011;68533;51.090;17.216;2024-02-15T08:34:41;26.92;;;11.85;;
79135;SDS011;68533;51.090;17.216;2024-02-15T08:38:06;19.55;;;9.82;;
79135;SDS011;68533;51.090;17.216;2024-02-15T08:41:38;14.27;;;7.82;;
79135;SDS011;68533;51.090;17.216;2024-02-15T08:45:06;12.05;;;6.57;;
79135;SDS011;68533;51.090;17.216;2024-02-15T08:48:32;12.95;;;5.80;;
79135;SDS011;68533;51.090;17.216;2024-02-15T08:52:15;13.68;;;6.25;;
79135;SDS011;68533;51.090;17.216;2024-02-15T08:55:41;12.98;;;6.05;;
79135;SDS011;68533;51.090;17.216;2024-02-15T08:59:06;11.65;;;6.63;;
79135;SDS011;68533;51.090;17.216;2024-02-15T09:02:35;16.52;;;8.13;;
79135;SDS011;68533;51.090;17.216;2024-02-15T09:06:00;17.17;;;7.47;;
79135;SDS011;68533;51.090;17.216;2024-02-15T09:09:29;12.18;;;6.72;;
79135;SDS011;68533;51.090;17.216;2024-02-15T09:12:56;11.43;;;6.25;;
79135;SDS011;68533;51.090;17.216;2024-02-15T09:16:20;9.95;;;5.93;;
79135;SDS011;68533;51.090;17.216;2024-02-15T09:19:48;11.25;;;6.15;;
79135;SDS011;68533;51.090;17.216;2024-02-15T09:23:14;15.23;;;8.55;;
79135;SDS011;68533;51.090;17.216;2024-02-15T09:26:41;14.63;;;7.13;;
79135;SDS011;68533;51.090;17.216;2024-02-15T09:30:08;12.80;;;6.18;;
79135;SDS011;68533;51.090;17.216;2024-02-15T09:33:33;15.70;;;6.60;;
79135;SDS011;68533;51.090;17.216;2024-02-15T09:36:58;11.18;;;6.57;;
79135;SDS011;68533;51.090;17.216;2024-02-15T09:40:23;12.95;;;6.70;;
79135;SDS011;68533;51.090;17.216;2024-02-15T09:43:48;8.40;;;6.05;;
79135;SDS011;68533;51.090;17.216;2024-02-15T09:47:13;12.27;;;7.38;;
79135;SDS011;68533;51.090;17.216;2024-02-15T09:50:43;13.57;;;6.93;;
79135;SDS011;68533;51.090;17.216;2024-02-15T09:54:10;35.25;;;19.63;;
79135;SDS011;68533;51.090;17.216;2024-02-15T09:57:39;20.50;;;8.90;;
79135;SDS011;68533;51.090;17.216;2024-02-15T10:01:04;10.90;;;5.85;;
79135;SDS011;68533;51.090;17.216;2024-02-15T10:04:38;12.25;;;6.65;;
79135;SDS011;68533;51.090;17.216;2024-02-15T10:08:05;12.00;;;5.82;;
79135;SDS011;68533;51.090;17.216;2024-02-15T10:11:58;9.40;;;5.47;;
79135;SDS011;68533;51.090;17.216;2024-02-15T10:15:35;13.73;;;7.32;;
79135;SDS011;68533;51.090;17.216;2024-02-15T10:19:10;10.93;;;6.20;;
79135;SDS011;68533;51.090;17.216;2024-02-15T10:22:36;13.20;;;5.88;;
79135;SDS011;68533;51.090;17.216;2024-02-15T10:26:18;13.73;;;7.13;;
79135;SDS011;68533;51.090;17.216;2024-02-15T10:29:49;13.40;;;7.32;;
79135;SDS011;68533;51.090;17.216;2024-02-15T10:33:19;22.45;;;10.85;;
79135;SDS011;68533;51.090;17.216;2024-02-15T10:36:50;12.02;;;6.65;;
79135;SDS011;68533;51.090;17.216;2024-02-15T10:40:19;16.98;;;8.60;;
79135;SDS011;68533;51.090;17.216;2024-02-15T10:43:48;46.38;;;19.35;;
79135;SDS011;68533;51.090;17.216;2024-02-15T10:47:14;12.20;;;7.00;;
79135;SDS011;68533;51.090;17.216;2024-02-15T10:50:40;14.23;;;7.43;;
79135;SDS011;68533;51.090;17.216;2024-02-15T10:54:08;14.95;;;6.13;;
79135;SDS011;68533;51.090;17.216;2024-02-15T10:57:40;14.23;;;6.53;;
79135;SDS011;68533;51.090;17.216;2024-02-15T11:01:40;10.95;;;6.25;;
79135;SDS011;68533;51.090;17.216;2024-02-15T11:05:12;9.15;;;6.07;;
79135;SDS011;68533;51.090;17.216;2024-02-15T11:08:41;8.07;;;5.35;;
79135;SDS011;68533;51.090;17.216;2024-02-15T11:12:08;10.95;;;6.47;;
79135;SDS011;68533;51.090;17.216;2024-02-15T11:22:59;12.07;;;5.45;;
79135;SDS011;68533;51.090;17.216;2024-02-15T11:26:45;10.20;;;5.38;;
79135;SDS011;68533;51.090;17.216;2024-02-15T11:30:13;9.52;;;5.15;;
79135;SDS011;68533;51.090;17.216;2024-02-15T11:37:59;11.90;;;6.85;;
79135;SDS011;68533;51.090;17.216;2024-02-15T11:41:24;8.45;;;4.65;;
79135;SDS011;68533;51.090;17.216;2024-02-15T11:45:05;15.32;;;6.03;;
79135;SDS011;68533;51.090;17.216;2024-02-15T11:48:30;9.75;;;4.80;;
79135;SDS011;68533;51.090;17.216;2024-02-15T11:51:56;7.55;;;4.10;;
79135;SDS011;68533;51.090;17.216;2024-02-15T11:55:31;8.02;;;4.28;;
79135;SDS011;68533;51.090;17.216;2024-02-15T11:59:03;5.80;;;3.67;;
79135;SDS011;68533;51.090;17.216;2024-02-15T12:06:37;9.40;;;3.83;;
79135;SDS011;68533;51.090;17.216;2024-02-15T12:10:20;7.28;;;4.20;;
79135;SDS011;68533;51.090;17.216;2024-02-15T12:14:03;7.32;;;3.72;;
79135;SDS011;68533;51.090;17.216;2024-02-15T12:17:47;9.57;;;4.32;;
79135;SDS011;68533;51.090;17.216;2024-02-15T12:21:19;9.93;;;4.75;;
79135;SDS011;68533;51.090;17.216;2024-02-15T12:24:57;13.93;;;6.70;;
79135;SDS011;68533;51.090;17.216;2024-02-15T12:28:22;13.10;;;4.00;;
79135;SDS011;68533;51.090;17.216;2024-02-15T12:31:49;13.40;;;6.80;;
79135;SDS011;68533;51.090;17.216;2024-02-15T12:35:23;8.90;;;3.83;;
79135;SDS011;68533;51.090;17.216;2024-02-15T12:38:58;9.27;;;5.55;;
79135;SDS011;68533;51.090;17.216;2024-02-15T12:42:39;9.18;;;5.60;;
79135;SDS011;68533;51.090;17.216;2024-02-15T12:46:04;8.95;;;5.15;;
79135;SDS011;68533;51.090;17.216;2024-02-15T12:49:31;10.70;;;6.80;;
79135;SDS011;68533;51.090;17.216;2024-02-15T12:52:57;13.25;;;6.97;;
79135;SDS011;68533;51.090;17.216;2024-02-15T12:56:33;12.65;;;6.30;;
79135;SDS011;68533;51.090;17.216;2024-02-15T12:59:58;14.50;;;7.88;;
79135;SDS011;68533;51.090;17.216;2024-02-15T13:03:34;12.15;;;7.30;;
79135;SDS011;68533;51.090;17.216;2024-02-15T13:06:59;12.63;;;5.85;;
79135;SDS011;68533;51.090;17.216;2024-02-15T13:10:31;10.35;;;6.35;;
79135;SDS011;68533;51.090;17.216;2024-02-15T13:13:55;12.90;;;7.72;;
79135;SDS011;68533;51.090;17.216;2024-02-15T13:17:20;10.70;;;4.72;;
79135;SDS011;68533;51.090;17.216;2024-02-15T13:20:45;10.40;;;5.03;;
79135;SDS011;68533;51.090;17.216;2024-02-15T13:24:10;14.18;;;5.38;;
79135;SDS011;68533;51.090;17.216;2024-02-15T13:27:36;7.72;;;3.83;;
79135;SDS011;68533;51.090;17.216;2024-02-15T13:31:04;8.88;;;5.20;;
79135;SDS011;68533;51.090;17.216;2024-02-15T13:34:31;6.45;;;3.63;;
79135;SDS011;68533;51.090;17.216;2024-02-15T13:37:56;12.13;;;5.60;;
79135;SDS011;68533;51.090;17.216;2024-02-15T13:41:24;6.85;;;4.05;;
79135;SDS011;68533;51.090;17.216;2024-02-15T13:44:48;6.30;;;3.03;;
79135;SDS011;68533;51.090;17.216;2024-02-15T13:48:16;10.93;;;4.40;;
79135;SDS011;68533;51.090;17.216;2024-02-15T13:51:44;8.75;;;4.20;;
79135;SDS011;68533;51.090;17.216;2024-02-15T13:55:14;9.30;;;3.55;;
79135;SDS011;68533;51.090;17.216;2024-02-15T13:58:42;9.98;;;3.22;;
79135;SDS011;68533;51.090;17.216;2024-02-15T14:02:07;5.93;;;2.90;;
79135;SDS011;68533;51.090;17.216;2024-02-15T14:05:40;15.23;;;5.80;;
79135;SDS011;68533;51.090;17.216;2024-02-15T14:09:11;6.90;;;3.30;;
79135;SDS011;68533;51.090;17.216;2024-02-15T14:12:37;7.25;;;3.20;;
79135;SDS011;68533;51.090;17.216;2024-02-15T14:16:02;10.23;;;4.35;;
79135;SDS011;68533;51.090;17.216;2024-02-15T14:19:27;7.72;;;3.75;;
79135;SDS011;68533;51.090;17.216;2024-02-15T14:22:53;9.50;;;4.63;;
79135;SDS011;68533;51.090;17.216;2024-02-15T14:26:19;11.40;;;3.80;;
79135;SDS011;68533;51.090;17.216;2024-02-15T14:29:45;6.85;;;3.63;;
79135;SDS011;68533;51.090;17.216;2024-02-15T14:33:33;5.35;;;2.65;;
79135;SDS011;68533;51.090;17.216;2024-02-15T14:36:57;5.80;;;3.28;;
79135;SDS011;68533;51.090;17.216;2024-02-15T14:40:27;7.32;;;3.78;;
79135;SDS011;68533;51.090;17.216;2024-02-15T14:43:54;5.05;;;3.22;;
79135;SDS011;68533;51.090;17.216;2024-02-15T14:47:19;5.88;;;2.63;;
79135;SDS011;68533;51.090;17.216;2024-02-15T14:50:47;4.60;;;2.90;;
79135;SDS011;68533;51.090;17.216;2024-02-15T14:54:14;5.18;;;3.78;;
79135;SDS011;68533;51.090;17.216;2024-02-15T14:57:42;7.90;;;2.47;;
79135;SDS011;68533;51.090;17.216;2024-02-15T15:01:11;6.25;;;2.60;;
79135;SDS011;68533;51.090;17.216;2024-02-15T15:04:38;16.88;;;6.18;;
79135;SDS011;68533;51.090;17.216;2024-02-15T15:08:21;18.48;;;6.75;;
79135;SDS011;68533;51.090;17.216;2024-02-15T15:12:05;39.05;;;15.40;;
79135;SDS011;68533;51.090;17.216;2024-02-15T15:15:32;47.33;;;17.20;;
79135;SDS011;68533;51.090;17.216;2024-02-15T15:18:57;32.22;;;12.48;;
79135;SDS011;68533;51.090;17.216;2024-02-15T15:22:22;18.35;;;7.75;;
79135;SDS011;68533;51.090;17.216;2024-02-15T15:25:48;24.83;;;11.43;;
79135;SDS011;68533;51.090;17.216;2024-02-15T15:29:13;44.90;;;17.52;;
79135;SDS011;68533;51.090;17.216;2024-02-15T15:32:39;37.90;;;16.92;;
79135;SDS011;68533;51.090;17.216;2024-02-15T15:36:04;13.10;;;6.05;;
79135;SDS011;68533;51.090;17.216;2024-02-15T15:39:28;7.30;;;3.25;;
79135;SDS011;68533;51.090;17.216;2024-02-15T15:42:55;4.63;;;2.65;;
79135;SDS011;68533;51.090;17.216;2024-02-15T15:46:22;29.45;;;12.80;;
79135;SDS011;68533;51.090;17.216;2024-02-15T15:49:48;31.35;;;12.23;;
79135;SDS011;68533;51.090;17.216;2024-02-15T15:53:15;13.77;;;6.20;;
79135;SDS011;68533;51.090;17.216;2024-02-15T15:56:40;13.02;;;4.13;;
79135;SDS011;68533;51.090;17.216;2024-02-15T16:00:09;10.27;;;4.00;;
79135;SDS011;68533;51.090;17.216;2024-02-15T16:03:38;11.77;;;4.45;;
79135;SDS011;68533;51.090;17.216;2024-02-15T16:07:09;9.02;;;3.25;;
79135;SDS011;68533;51.090;17.216;2024-02-15T16:10:39;7.43;;;3.55;;
79135;SDS011;68533;51.090;17.216;2024-02-15T16:14:07;6.78;;;3.80;;
79135;SDS011;68533;51.090;17.216;2024-02-15T16:17:46;9.50;;;3.83;;
79135;SDS011;68533;51.090;17.216;2024-02-15T16:21:11;16.52;;;5.85;;
79135;SDS011;68533;51.090;17.216;2024-02-15T16:24:36;19.90;;;9.32;;
79135;SDS011;68533;51.090;17.216;2024-02-15T16:28:01;30.08;;;11.85;;
79135;SDS011;68533;51.090;17.216;2024-02-15T16:31:25;19.42;;;9.23;;
79135;SDS011;68533;51.090;17.216;2024-02-15T16:34:51;16.15;;;8.70;;
79135;SDS011;68533;51.090;17.216;2024-02-15T16:38:15;20.15;;;8.50;;
79135;SDS011;68533;51.090;17.216;2024-02-15T16:41:40;16.13;;;7.90;;
79135;SDS011;68533;51.090;17.216;2024-02-15T16:45:15;12.85;;;7.00;;
79135;SDS011;68533;51.090;17.216;2024-02-15T16:48:42;15.60;;;6.88;;
79135;SDS011;68533;51.090;17.216;2024-02-15T16:52:06;15.30;;;8.13;;
79135;SDS011;68533;51.090;17.216;2024-02-15T16:55:33;17.60;;;9.63;;
79135;SDS011;68533;51.090;17.216;2024-02-15T16:58:58;16.00;;;8.77;;
79135;SDS011;68533;51.090;17.216;2024-02-15T17:02:24;19.52;;;9.98;;
79135;SDS011;68533;51.090;17.216;2024-02-15T17:05:48;22.83;;;10.90;;
79135;SDS011;68533;51.090;17.216;2024-02-15T17:09:17;22.70;;;10.30;;
79135;SDS011;68533;51.090;17.216;2024-02-15T17:12:41;26.98;;;10.75;;
79135;SDS011;68533;51.090;17.216;2024-02-15T17:16:10;24.00;;;10.63;;
79135;SDS011;68533;51.090;17.216;2024-02-15T17:22:59;27.08;;;8.55;;
79135;SDS011;68533;51.090;17.216;2024-02-15T17:26:24;36.42;;;14.88;;
79135;SDS011;68533;51.090;17.216;2024-02-15T17:29:50;22.52;;;10.43;;
79135;SDS011;68533;51.090;17.216;2024-02-15T17:33:14;31.65;;;11.48;;
79135;SDS011;68533;51.090;17.216;2024-02-15T17:36:39;26.88;;;10.10;;
79135;SDS011;68533;51.090;17.216;2024-02-15T17:40:06;22.92;;;11.10;;
79135;SDS011;68533;51.090;17.216;2024-02-15T17:43:32;23.95;;;11.05;;
79135;SDS011;68533;51.090;17.216;2024-02-15T17:46:58;22.92;;;10.75;;
79135;SDS011;68533;51.090;17.216;2024-02-15T17:50:23;24.15;;;11.57;;
79135;SDS011;68533;51.090;17.216;2024-02-15T17:53:48;28.50;;;12.40;;
79135;SDS011;68533;51.090;17.216;2024-02-15T17:57:13;35.13;;;15.68;;
79135;SDS011;68533;51.090;17.216;2024-02-15T18:00:38;28.65;;;14.65;;
79135;SDS011;68533;51.090;17.216;2024-02-15T18:04:04;28.30;;;14.85;;
79135;SDS011;68533;51.090;17.216;2024-02-15T18:07:39;33.80;;;15.13;;
79135;SDS011;68533;51.090;17.216;2024-02-15T18:11:06;31.58;;;15.05;;
79135;SDS011;68533;51.090;17.216;2024-02-15T18:14:30;29.52;;;14.40;;
79135;SDS011;68533;51.090;17.216;2024-02-15T18:18:00;30.20;;;15.93;;
79135;SDS011;68533;51.090;17.216;2024-02-15T18:21:24;45.45;;;20.30;;
79135;SDS011;68533;51.090;17.216;2024-02-15T18:24:53;36.42;;;16.80;;
79135;SDS011;68533;51.090;17.216;2024-02-15T18:28:20;39.15;;;17.23;;
79135;SDS011;68533;51.090;17.216;2024-02-15T18:31:47;34.63;;;13.93;;
79135;SDS011;68533;51.090;17.216;2024-02-15T18:35:30;34.80;;;13.68;;
79135;SDS011;68533;51.090;17.216;2024-02-15T18:42:18;47.00;;;24.23;;
79135;SDS011;68533;51.090;17.216;2024-02-15T18:45:43;44.67;;;19.10;;
79135;SDS011;68533;51.090;17.216;2024-02-15T18:49:08;39.67;;;15.45;;
79135;SDS011;68533;51.090;17.216;2024-02-15T18:52:37;40.65;;;19.60;;
79135;SDS011;68533;51.090;17.216;2024-02-15T18:56:02;43.15;;;15.95;;
79135;SDS011;68533;51.090;17.216;2024-02-15T18:59:26;28.17;;;13.98;;
79135;SDS011;68533;51.090;17.216;2024-02-15T19:02:53;32.00;;;14.75;;
79135;SDS011;68533;51.090;17.216;2024-02-15T19:06:17;26.83;;;12.48;;
79135;SDS011;68533;51.090;17.216;2024-02-15T19:09:43;26.65;;;12.45;;
79135;SDS011;68533;51.090;17.216;2024-02-15T19:13:08;31.33;;;14.02;;
79135;SDS011;68533;51.090;17.216;2024-02-15T19:16:34;34.13;;;16.52;;
79135;SDS011;68533;51.090;17.216;2024-02-15T19:20:20;27.92;;;14.73;;
79135;SDS011;68533;51.090;17.216;2024-02-15T19:23:54;30.63;;;15.18;;
79135;SDS011;68533;51.090;17.216;2024-02-15T19:27:19;25.27;;;13.27;;
79135;SDS011;68533;51.090;17.216;2024-02-15T19:30:45;23.77;;;11.38;;
79135;SDS011;68533;51.090;17.216;2024-02-15T19:34:10;24.27;;;11.55;;
79135;SDS011;68533;51.090;17.216;2024-02-15T19:37:36;24.50;;;12.65;;
79135;SDS011;68533;51.090;17.216;2024-02-15T19:41:01;28.80;;;13.68;;
79135;SDS011;68533;51.090;17.216;2024-02-15T19:47:50;30.13;;;14.90;;
79135;SDS011;68533;51.090;17.216;2024-02-15T19:51:16;28.42;;;14.77;;
79135;SDS011;68533;51.090;17.216;2024-02-15T19:54:43;37.30;;;17.48;;
79135;SDS011;68533;51.090;17.216;2024-02-15T19:58:08;40.00;;;18.92;;
79135;SDS011;68533;51.090;17.216;2024-02-15T20:01:34;32.03;;;15.63;;
79135;SDS011;68533;51.090;17.216;2024-02-15T20:04:59;32.55;;;16.40;;
79135;SDS011;68533;51.090;17.216;2024-02-15T20:08:40;32.17;;;14.75;;
79135;SDS011;68533;51.090;17.216;2024-02-15T20:12:05;33.85;;;16.00;;
79135;SDS011;68533;51.090;17.216;2024-02-15T20:15:29;35.92;;;15.27;;
79135;SDS011;68533;51.090;17.216;2024-02-15T20:18:55;30.15;;;14.43;;
79135;SDS011;68533;51.090;17.216;2024-02-15T20:22:20;33.17;;;15.82;;
79135;SDS011;68533;51.090;17.216;2024-02-15T20:25:45;39.58;;;16.02;;
79135;SDS011;68533;51.090;17.216;2024-02-15T20:29:15;45.33;;;22.20;;
79135;SDS011;68533;51.090;17.216;2024-02-15T20:32:43;40.97;;;20.05;;
79135;SDS011;68533;51.090;17.216;2024-02-15T20:36:07;27.73;;;14.00;;
79135;SDS011;68533;51.090;17.216;2024-02-15T20:39:32;41.42;;;19.38;;
79135;SDS011;68533;51.090;17.216;2024-02-15T20:46:27;43.60;;;20.35;;
79135;SDS011;68533;51.090;17.216;2024-02-15T20:49:56;33.03;;;15.48;;
79135;SDS011;68533;51.090;17.216;2024-02-15T20:56:47;25.33;;;10.43;;
79135;SDS011;68533;51.090;17.216;2024-02-15T21:00:17;23.88;;;10.85;;
79135;SDS011;68533;51.090;17.216;2024-02-15T21:03:51;27.67;;;11.02;;
79135;SDS011;68533;51.090;17.216;2024-02-15T21:07:17;21.85;;;10.30;;
79135;SDS011;68533;51.090;17.216;2024-02-15T21:10:46;23.02;;;10.63;;
79135;SDS011;68533;51.090;17.216;2024-02-15T21:14:11;22.65;;;9.82;;
79135;SDS011;68533;51.090;17.216;2024-02-15T21:17:39;20.88;;;10.07;;
79135;SDS011;68533;51.090;17.216;2024-02-15T21:21:08;24.17;;;11.18;;
79135;SDS011;68533;51.090;17.216;2024-02-15T21:24:33;22.40;;;10.43;;
79135;SDS011;68533;51.090;17.216;2024-02-15T21:27:57;22.95;;;11.00;;
79135;SDS011;68533;51.090;17.216;2024-02-15T21:31:23;23.83;;;10.18;;
79135;SDS011;68533;51.090;17.216;2024-02-15T21:34:47;29.27;;;11.55;;
79135;SDS011;68533;51.090;17.216;2024-02-15T21:38:15;25.95;;;11.60;;
79135;SDS011;68533;51.090;17.216;2024-02-15T21:41:40;25.45;;;12.75;;
79135;SDS011;68533;51.090;17.216;2024-02-15T21:45:07;32.00;;;13.82;;
79135;SDS011;68533;51.090;17.216;2024-02-15T21:48:32;42.95;;;17.08;;
79135;SDS011;68533;51.090;17.216;2024-02-15T21:55:21;21.50;;;9.23;;
79135;SDS011;68533;51.090;17.216;2024-02-15T21:58:46;21.50;;;9.90;;
79135;SDS011;68533;51.090;17.216;2024-02-15T22:02:11;22.50;;;10.10;;
79135;SDS011;68533;51.090;17.216;2024-02-15T22:05:38;22.17;;;10.60;;
79135;SDS011;68533;51.090;17.216;2024-02-15T22:09:03;21.42;;;9.82;;
79135;SDS011;68533;51.090;17.216;2024-02-15T22:12:28;19.90;;;9.73;;
79135;SDS011;68533;51.090;17.216;2024-02-15T22:15:54;26.23;;;10.50;;
79135;SDS011;68533;51.090;17.216;2024-02-15T22:19:19;22.63;;;9.70;;
79135;SDS011;68533;51.090;17.216;2024-02-15T22:22:43;20.63;;;9.07;;
79135;SDS011;68533;51.090;17.216;2024-02-15T22:26:15;21.30;;;8.57;;
79135;SDS011;68533;51.090;17.216;2024-02-15T22:29:39;20.92;;;10.07;;
79135;SDS011;68533;51.090;17.216;2024-02-15T22:33:04;22.00;;;9.77;;
79135;SDS011;68533;51.090;17.216;2024-02-15T22:36:29;22.02;;;10.38;;